createdAt,value
2018-12-12T00:00:14.053Z,6.6
2018-12-12T00:05:36.735Z,7.5
2018-12-12T00:10:59.451Z,7
2018-12-12T00:16:22.388Z,7.2
2018-12-12T00:21:47.477Z,6.5
2018-12-12T00:27:10.248Z,6.3
2018-12-12T00:32:33.516Z,6.4
2018-12-12T00:37:56.222Z,5.9
2018-12-12T00:43:26.286Z,6.4
2018-12-12T00:48:48.796Z,7.2
2018-12-12T00:54:22.604Z,7.6
2018-12-12T00:59:45.150Z,7
2018-12-12T01:05:08.035Z,6.3
2018-12-12T01:10:34.861Z,6.9
2018-12-12T01:15:58.215Z,6.8
2018-12-12T01:21:21.547Z,6.5
2018-12-12T01:26:47.325Z,6.8
2018-12-12T01:32:14.166Z,7.7
2018-12-12T01:37:39.913Z,7
2018-12-12T01:43:07.400Z,7.1
2018-12-12T01:48:30.649Z,7.2
2018-12-12T01:53:53.345Z,7.1
2018-12-12T01:59:16.003Z,7
2018-12-12T02:04:38.666Z,6.8
2018-12-12T02:10:01.797Z,6.9
2018-12-12T02:15:27.438Z,7.3
2018-12-12T02:20:50.046Z,7.8
2018-12-12T02:26:15.690Z,7
2018-12-12T02:31:38.896Z,7.3
2018-12-12T02:37:02.751Z,6.9
2018-12-12T02:42:25.524Z,7.4
2018-12-12T02:47:48.585Z,7.6
2018-12-12T02:53:13.340Z,7.9
2018-12-12T02:58:38.469Z,8.2
2018-12-12T03:04:03.024Z,8.6
2018-12-12T03:09:26.839Z,9.6
2018-12-12T03:14:50.186Z,9
2018-12-12T03:20:12.858Z,12.6
2018-12-12T03:25:35.519Z,12.2
2018-12-12T03:30:58.928Z,11.3
2018-12-12T03:36:22.092Z,11.3
2018-12-12T03:41:45.477Z,11.2
2018-12-12T03:47:10.528Z,11.4
2018-12-12T03:52:33.657Z,11.8
2018-12-12T03:57:57.124Z,11.2
2018-12-12T04:03:19.941Z,11.5
2018-12-12T04:08:43.520Z,11.4
2018-12-12T04:14:06.460Z,11.2
2018-12-12T04:19:29.161Z,10.3
2018-12-12T04:24:51.880Z,10.8
2018-12-12T04:30:15.379Z,10.3
2018-12-12T04:35:38.500Z,11.7
2018-12-12T04:41:02.984Z,11.5
2018-12-12T04:46:27.311Z,10.9
2018-12-12T04:51:50.415Z,11.1
2018-12-12T04:57:13.117Z,10.8
2018-12-12T05:02:35.828Z,11.4
2018-12-12T05:07:59.841Z,10.3
2018-12-12T05:13:24.736Z,10.2
2018-12-12T05:18:47.496Z,10
2018-12-12T05:24:11.492Z,9.8
2018-12-12T05:29:44.104Z,10
2018-12-12T05:35:10.860Z,9.4
2018-12-12T05:40:33.436Z,8.9
2018-12-12T05:46:00.700Z,9.7
2018-12-12T05:51:23.883Z,9.4
2018-12-12T05:56:52.274Z,9.3
2018-12-12T06:02:12.519Z,9.5
2018-12-12T06:07:36.166Z,9.6
2018-12-12T06:12:59.017Z,9.8
2018-12-12T06:18:21.672Z,10
2018-12-12T06:23:44.436Z,9.4
2018-12-12T06:29:07.139Z,9.4
2018-12-12T06:34:29.853Z,9.4
2018-12-12T06:39:52.514Z,10.2
2018-12-12T06:45:15.163Z,10.2
2018-12-12T06:50:38.386Z,10
2018-12-12T06:56:01.431Z,10.3
2018-12-12T07:01:24.597Z,10
2018-12-12T07:06:47.215Z,10.1
2018-12-12T07:12:09.940Z,10.4
2018-12-12T07:17:32.866Z,9.5
2018-12-12T07:22:55.807Z,10.5
2018-12-12T07:28:18.603Z,13.9
2018-12-12T07:33:41.675Z,11
2018-12-12T07:39:04.713Z,10.4
2018-12-12T07:44:27.395Z,11.1
2018-12-12T07:49:50.293Z,10
2018-12-12T07:55:12.693Z,10.2
2018-12-12T08:00:35.388Z,11.5
2018-12-12T08:05:58.417Z,10.2
2018-12-12T08:11:21.022Z,10.6
2018-12-12T08:16:43.897Z,10.2
2018-12-12T08:22:06.493Z,9.3
2018-12-12T08:27:30.354Z,10.2
2018-12-12T08:32:53.269Z,9.8
2018-12-12T08:38:15.989Z,9.7
2018-12-12T08:43:38.677Z,9.8
2018-12-12T08:49:01.598Z,10.3
2018-12-12T08:54:24.490Z,10
2018-12-12T08:59:46.108Z,10.4
2018-12-12T09:05:08.720Z,9.8
2018-12-12T09:10:31.361Z,10.1
2018-12-12T09:15:55.046Z,9.8
2018-12-12T09:21:17.930Z,9.8
2018-12-12T09:26:40.835Z,9.7
2018-12-12T09:32:03.481Z,9.9
2018-12-12T09:37:26.127Z,10.1
2018-12-12T09:42:48.866Z,10
2018-12-12T09:48:11.695Z,10.3
2018-12-12T09:53:34.468Z,9.5
2018-12-12T09:58:57.755Z,10
2018-12-12T10:04:21.217Z,10.6
2018-12-12T10:09:44.139Z,10.1
2018-12-12T10:15:06.909Z,9.6
2018-12-12T10:20:29.684Z,9
2018-12-12T10:25:52.391Z,8.9
2018-12-12T10:31:15.381Z,8.6
2018-12-12T10:36:38.637Z,7.4
2018-12-12T10:42:01.335Z,7.2
2018-12-12T10:47:25.025Z,7.4
2018-12-12T10:52:47.862Z,7.5
2018-12-12T10:58:10.678Z,8.5
2018-12-12T11:03:34.474Z,8.3
2018-12-12T11:08:57.124Z,8.8
2018-12-12T11:14:20.565Z,8.2
2018-12-12T11:19:43.793Z,8.4
2018-12-12T11:25:06.569Z,8.1
2018-12-12T11:30:29.165Z,7.9
2018-12-12T11:35:51.951Z,8.3
2018-12-12T11:41:18.223Z,8.1
2018-12-12T11:46:42.237Z,8.7
2018-12-12T11:52:05.425Z,9.5
2018-12-12T11:57:27.621Z,9.3
2018-12-12T12:02:51.413Z,9.2
2018-12-12T12:08:14.099Z,9
2018-12-12T12:13:37.864Z,9.2
2018-12-12T12:19:00.513Z,8.4
2018-12-12T12:24:24.292Z,8.9
2018-12-12T12:29:46.713Z,9.5
2018-12-12T12:35:11.312Z,8.4
2018-12-12T12:40:34.679Z,9.1
2018-12-12T12:45:58.139Z,9.6
2018-12-12T12:51:21.379Z,9.7
2018-12-12T12:56:45.303Z,10.2
2018-12-12T13:02:16.927Z,9.3
2018-12-12T13:07:39.658Z,9.1
2018-12-12T13:13:12.838Z,9
2018-12-12T13:18:36.785Z,9.2
2018-12-12T13:24:00.339Z,8.4
2018-12-12T13:29:22.976Z,8
2018-12-12T13:34:47.050Z,8
2018-12-12T13:40:09.675Z,8.2
2018-12-12T13:45:32.552Z,9
2018-12-12T13:50:56.165Z,8.5
2018-12-12T13:56:18.777Z,9.2
2018-12-12T14:01:42.976Z,9.2
2018-12-12T14:07:06.217Z,10
2018-12-12T14:12:30.394Z,8.9
2018-12-12T14:17:54.245Z,6.5
2018-12-12T14:23:17.953Z,6.7
2018-12-12T14:28:42.088Z,7.1
2018-12-12T14:34:05.172Z,7.2
2018-12-12T14:39:27.997Z,7.3
2018-12-12T14:44:50.621Z,6.1
2018-12-12T14:50:14.409Z,6.3
2018-12-12T14:55:37.076Z,6.7
2018-12-12T15:01:00.316Z,6.2
2018-12-12T15:06:32.790Z,6.4
2018-12-12T15:12:07.023Z,6.6
2018-12-12T15:17:30.739Z,6
2018-12-12T15:22:53.358Z,6.2
2018-12-12T15:28:16.019Z,5.9
2018-12-12T15:33:38.785Z,6
2018-12-12T15:39:01.553Z,5.8
2018-12-12T15:44:24.394Z,6.3
2018-12-12T15:49:47.343Z,6.5
2018-12-12T15:55:10.313Z,9.4
2018-12-12T16:00:33.088Z,9
2018-12-12T16:05:56.731Z,9.1
2018-12-12T16:11:19.589Z,9
2018-12-12T16:16:55.295Z,8
2018-12-12T16:22:17.871Z,12.5
2018-12-12T16:27:40.532Z,12.5
2018-12-12T16:33:03.349Z,8.2
2018-12-12T16:38:26.648Z,8.6
2018-12-12T16:43:49.431Z,9.2
2018-12-12T16:49:12.208Z,8.6
2018-12-12T16:54:35.673Z,10.6
2018-12-12T16:59:59.593Z,9.3
2018-12-12T17:05:22.225Z,9.7
2018-12-12T17:10:45.294Z,9
2018-12-12T17:16:08.312Z,8.7
2018-12-12T17:21:30.973Z,8.5
2018-12-12T17:26:53.739Z,8.8
2018-12-12T17:32:47.401Z,8.7
2018-12-12T17:38:10.930Z,8.1
2018-12-12T17:43:32.710Z,8.5
2018-12-12T17:48:55.475Z,10.3
2018-12-12T17:54:18.761Z,10.7
2018-12-12T17:59:41.524Z,13.3
2018-12-12T18:05:04.482Z,13.9
2018-12-12T18:10:27.103Z,13.2
2018-12-12T18:15:50.315Z,12.9
2018-12-12T18:21:15.167Z,12.9
2018-12-12T18:26:47.652Z,13.6
2018-12-12T18:32:10.395Z,13.3
2018-12-12T18:37:33.167Z,13.8
2018-12-12T18:43:02.491Z,14.4
2018-12-12T18:48:26.810Z,14.7
2018-12-12T18:54:27.385Z,13.4
2018-12-12T18:59:52.572Z,15.2
2018-12-12T19:05:15.107Z,15.7
2018-12-12T19:10:40.964Z,14.6
2018-12-12T19:16:15.073Z,15.2
2018-12-12T19:21:50.804Z,14.4
2018-12-12T19:27:27.843Z,15.3
2018-12-12T19:33:03.380Z,15.3
2018-12-12T19:38:37.186Z,18.6
2018-12-12T19:43:59.981Z,16.6
2018-12-12T19:49:23.982Z,18.299999
2018-12-12T19:55:03.346Z,15.8
2018-12-12T20:00:26.891Z,15.9
2018-12-12T20:05:52.258Z,17.4
2018-12-12T20:11:15.037Z,17.5
2018-12-12T20:16:47.737Z,16.299999
2018-12-12T20:23:11.562Z,18.200001
2018-12-12T20:28:34.712Z,20.1
2018-12-12T20:33:57.662Z,17.799999
2018-12-12T20:39:20.730Z,17.4
2018-12-12T20:44:43.720Z,18.299999
2018-12-12T20:50:11.391Z,18.9
2018-12-12T20:55:36.311Z,17.9
2018-12-12T21:00:59.349Z,19.4
2018-12-12T21:06:22.315Z,18.1
2018-12-12T21:11:45.339Z,19.1
2018-12-12T21:17:08.162Z,19.6
2018-12-12T21:22:31.923Z,18.700001
2018-12-12T21:27:55.019Z,19.4
2018-12-12T21:33:17.055Z,20.4
2018-12-12T21:38:39.942Z,19.299999
2018-12-12T21:44:11.485Z,29
2018-12-12T21:49:38.629Z,18.299999
2018-12-12T21:55:08.570Z,17.6
2018-12-12T22:00:31.435Z,18.6
2018-12-12T22:05:54.305Z,18.200001
2018-12-12T22:11:17.533Z,17.1
2018-12-12T22:16:40.213Z,17.299999
2018-12-12T22:22:03.253Z,17.4
2018-12-12T22:27:26.048Z,18.700001
2018-12-12T22:32:48.834Z,17.299999
2018-12-12T22:38:11.537Z,17
2018-12-12T22:43:34.223Z,18.1
2018-12-12T22:50:14.603Z,18.4
2018-12-12T22:57:20.118Z,19.200001
2018-12-12T23:04:20.615Z,19.799999
